createdAt,value
2018-04-02T00:01:48.008Z,4.40
2018-04-02T00:04:22.847Z,4.30
2018-04-02T00:06:56.732Z,4.20
2018-04-02T00:09:30.555Z,4.20
2018-04-02T00:12:04.489Z,4.10
2018-04-02T00:14:38.971Z,3.90
2018-04-02T00:17:14.066Z,3.90
2018-04-02T00:19:48.209Z,3.90
2018-04-02T00:22:22.836Z,3.80
2018-04-02T00:24:56.860Z,3.80
2018-04-02T00:27:31.513Z,3.70
2018-04-02T00:30:05.693Z,3.70
2018-04-02T00:32:40.557Z,3.40
2018-04-02T00:35:14.813Z,3.30
2018-04-02T00:37:49.868Z,3.30
2018-04-02T00:40:24.629Z,3.40
2018-04-02T00:42:58.730Z,3.40
2018-04-02T00:45:33.500Z,3.40
2018-04-02T00:48:07.414Z,3.30
2018-04-02T00:50:41.978Z,3.10
2018-04-02T00:53:15.878Z,3.20
2018-04-02T00:55:50.071Z,3.10
2018-04-02T00:58:25.516Z,2.90
2018-04-02T01:01:00.294Z,2.90
2018-04-02T01:03:35.071Z,2.80
2018-04-02T01:06:09.696Z,2.80
2018-04-02T01:08:44.418Z,2.80
2018-04-02T01:11:19.063Z,2.70
2018-04-02T01:13:54.160Z,2.70
2018-04-02T01:16:28.709Z,2.60
2018-04-02T01:19:03.324Z,2.60
2018-04-02T01:21:38.881Z,2.60
2018-04-02T01:24:13.487Z,2.40
2018-04-02T01:26:47.195Z,2.40
2018-04-02T01:29:20.920Z,2.30
2018-04-02T01:31:55.320Z,2.20
2018-04-02T01:34:29.336Z,2.20
2018-04-02T01:37:03.445Z,2.10
2018-04-02T01:39:37.564Z,2.10
2018-04-02T01:42:12.592Z,2.10
2018-04-02T01:44:47.229Z,2.00
2018-04-02T01:47:21.118Z,2.00
2018-04-02T01:49:57.069Z,1.90
2018-04-02T01:52:31.403Z,1.70
2018-04-02T01:55:05.390Z,1.70
2018-04-02T01:57:39.513Z,1.60
2018-04-02T02:00:15.587Z,1.50
2018-04-02T02:02:49.471Z,1.50
2018-04-02T02:05:23.904Z,1.40
2018-04-02T02:07:57.712Z,1.40
2018-04-02T02:10:31.706Z,1.40
2018-04-02T02:13:05.722Z,1.20
2018-04-02T02:15:40.236Z,1.10
2018-04-02T02:18:14.778Z,1.00
2018-04-02T02:20:48.685Z,1.00
2018-04-02T02:23:22.369Z,1.10
2018-04-02T02:25:56.992Z,0.90
2018-04-02T02:28:31.747Z,0.70
2018-04-02T02:31:06.437Z,0.70
2018-04-02T02:33:40.553Z,0.70
2018-04-02T02:36:14.997Z,0.60
2018-04-02T02:38:50.521Z,0.50
2018-04-02T02:41:25.064Z,0.50
2018-04-02T02:43:59.815Z,0.50
2018-04-02T02:46:33.570Z,0.50
2018-04-02T02:49:08.123Z,0.40
2018-04-02T02:51:42.307Z,0.30
2018-04-02T02:54:16.949Z,0.30
2018-04-02T02:56:50.942Z,0.30
2018-04-02T02:59:25.361Z,0.30
2018-04-02T03:01:59.182Z,0.30
2018-04-02T03:04:33.293Z,0.30
2018-04-02T03:07:07.290Z,0.30
2018-04-02T03:09:41.794Z,0.30
2018-04-02T03:12:15.765Z,0.20
2018-04-02T03:14:50.058Z,0.10
2018-04-02T03:17:25.112Z,0.00
2018-04-02T03:19:59.798Z,0.00
2018-04-02T03:22:33.504Z,-0.10
2018-04-02T03:25:07.328Z,-0.10
2018-04-02T03:27:41.026Z,-0.20
2018-04-02T03:30:15.127Z,-0.20
2018-04-02T03:32:51.917Z,-0.20
2018-04-02T03:35:25.790Z,-0.20
2018-04-02T03:37:59.400Z,-0.10
2018-04-02T03:40:33.627Z,0.00
2018-04-02T03:43:08.008Z,-0.10
2018-04-02T03:45:41.743Z,-0.20
2018-04-02T03:48:16.356Z,-0.40
2018-04-02T03:50:54.989Z,-0.50
2018-04-02T03:53:29.635Z,-0.50
2018-04-02T03:56:05.613Z,-0.60
2018-04-02T03:58:39.366Z,-0.60
2018-04-02T04:01:13.569Z,-0.50
2018-04-02T04:03:48.208Z,-0.60
2018-04-02T04:06:22.409Z,-0.60
2018-04-02T04:08:56.968Z,-0.70
2018-04-02T04:11:31.473Z,-0.80
2018-04-02T04:14:05.685Z,-0.70
2018-04-02T04:16:39.737Z,-0.70
2018-04-02T04:19:14.411Z,-0.70
2018-04-02T04:21:49.544Z,-0.70
2018-04-02T04:24:23.443Z,-0.70
2018-04-02T04:26:57.441Z,-0.80
2018-04-02T04:29:31.180Z,-0.80
2018-04-02T04:32:05.168Z,-0.80
2018-04-02T04:34:39.696Z,-0.90
2018-04-02T04:37:13.595Z,-1.00
2018-04-02T04:39:48.322Z,-1.00
2018-04-02T04:42:22.129Z,-1.00
2018-04-02T04:44:56.981Z,-0.90
2018-04-02T04:47:30.887Z,-0.90
2018-04-02T04:50:05.903Z,-0.90
2018-04-02T04:52:40.518Z,-1.10
2018-04-02T04:55:15.753Z,-0.90
2018-04-02T04:57:50.510Z,-0.90
2018-04-02T05:00:25.977Z,-0.90
2018-04-02T05:02:59.633Z,-0.90
2018-04-02T05:05:34.782Z,-1.00
2018-04-02T05:08:09.391Z,-1.00
2018-04-02T05:10:45.046Z,-1.10
2018-04-02T05:13:19.586Z,-1.10
2018-04-02T05:15:53.575Z,-1.20
2018-04-02T05:18:28.415Z,-1.00
2018-04-02T05:21:03.535Z,-1.10
2018-04-02T05:23:38.242Z,-1.00
2018-04-02T05:26:13.127Z,-1.00
2018-04-02T05:28:47.296Z,-1.00
2018-04-02T05:31:21.322Z,-1.00
2018-04-02T05:33:55.647Z,-1.00
2018-04-02T05:36:30.047Z,-0.90
2018-04-02T05:39:04.568Z,-1.00
2018-04-02T05:41:38.476Z,-0.90
2018-04-02T05:44:13.580Z,-0.80
2018-04-02T05:46:48.968Z,-0.60
2018-04-02T05:49:23.610Z,-0.60
2018-04-02T05:51:58.093Z,-0.70
2018-04-02T05:54:32.432Z,-0.60
2018-04-02T05:57:06.695Z,-0.60
2018-04-02T05:59:40.549Z,-0.50
2018-04-02T06:02:14.748Z,-0.40
2018-04-02T06:04:48.360Z,-0.40
2018-04-02T06:07:22.016Z,-0.40
2018-04-02T06:09:56.274Z,-0.30
2018-04-02T06:12:30.685Z,-0.10
2018-04-02T06:15:05.747Z,0.00
2018-04-02T06:17:41.565Z,0.10
2018-04-02T06:20:17.245Z,0.20
2018-04-02T06:22:51.757Z,0.20
2018-04-02T06:25:26.599Z,0.20
2018-04-02T06:28:01.084Z,0.30
2018-04-02T06:30:35.720Z,0.40
2018-04-02T06:33:10.447Z,0.60
2018-04-02T06:35:46.106Z,0.80
2018-04-02T06:38:20.336Z,0.80
2018-04-02T06:40:55.156Z,0.80
2018-04-02T06:43:28.944Z,1.00
2018-04-02T06:46:04.525Z,1.10
2018-04-02T06:48:39.108Z,1.30
2018-04-02T06:51:14.682Z,1.40
2018-04-02T06:53:49.276Z,1.50
2018-04-02T06:56:24.744Z,1.60
2018-04-02T06:58:58.533Z,1.60
2018-04-02T07:01:33.361Z,2.20
2018-04-02T07:04:07.572Z,2.20
2018-04-02T07:06:42.311Z,2.60
2018-04-02T07:09:17.047Z,2.70
2018-04-02T07:11:51.847Z,3.00
2018-04-02T07:14:26.914Z,3.00
2018-04-02T07:17:00.595Z,3.20
2018-04-02T07:19:35.632Z,3.70
2018-04-02T07:22:09.680Z,3.60
2018-04-02T07:24:44.058Z,3.80
2018-04-02T07:27:18.612Z,4.20
2018-04-02T07:29:53.309Z,4.40
2018-04-02T07:32:27.123Z,4.40
2018-04-02T07:35:01.186Z,4.60
2018-04-02T07:37:36.159Z,4.90
2018-04-02T07:40:11.002Z,5.20
2018-04-02T07:42:45.992Z,5.50
2018-04-02T07:45:20.639Z,5.80
2018-04-02T07:47:54.923Z,5.80
2018-04-02T07:50:29.592Z,6.20
2018-04-02T07:53:04.215Z,6.20
2018-04-02T07:55:38.926Z,6.90
2018-04-02T07:58:13.463Z,6.90
2018-04-02T08:00:48.075Z,7.80
2018-04-02T08:03:25.683Z,8.20
2018-04-02T08:05:59.490Z,8.20
2018-04-02T08:08:35.560Z,8.70
2018-04-02T08:11:09.440Z,8.70
2018-04-02T08:13:44.148Z,9.00
2018-04-02T08:16:18.683Z,9.40
2018-04-02T08:18:53.928Z,9.30
2018-04-02T08:21:28.059Z,9.30
2018-04-02T08:24:03.941Z,10.30
2018-04-02T08:26:37.994Z,10.30
2018-04-02T08:29:13.154Z,10.80
2018-04-02T08:31:46.964Z,10.80
2018-04-02T08:34:20.652Z,10.90
2018-04-02T08:36:55.443Z,11.40
2018-04-02T08:39:29.092Z,11.40
2018-04-02T08:42:02.965Z,11.30
2018-04-02T08:44:36.872Z,11.40
2018-04-02T08:47:11.403Z,11.90
2018-04-02T08:49:45.439Z,11.90
2018-04-02T08:52:19.924Z,12.50
2018-04-02T08:54:55.663Z,12.80
2018-04-02T08:57:29.341Z,12.80
2018-04-02T09:00:03.990Z,12.90
2018-04-02T09:02:38.443Z,13.30
2018-04-02T09:05:13.050Z,13.30
2018-04-02T09:07:46.858Z,13.00
2018-04-02T09:10:21.491Z,13.00
2018-04-02T09:12:55.461Z,13.10
2018-04-02T09:15:29.184Z,13.80
2018-04-02T09:18:05.561Z,13.70
2018-04-02T09:20:40.211Z,13.80
2018-04-02T09:23:14.082Z,13.80
2018-04-02T09:25:48.711Z,14.20
2018-04-02T09:28:24.065Z,14.90
2018-04-02T09:30:58.376Z,14.90
2018-04-02T09:33:33.540Z,15.60
2018-04-02T09:36:08.732Z,15.70
2018-04-02T09:38:43.236Z,15.10
2018-04-02T09:41:17.777Z,14.80
2018-04-02T09:43:52.735Z,14.80
2018-04-02T09:46:27.245Z,15.20
2018-04-02T09:49:01.040Z,15.10
2018-04-02T09:51:35.282Z,14.80
2018-04-02T09:54:10.578Z,14.30
2018-04-02T09:56:44.501Z,14.30
2018-04-02T09:59:18.470Z,14.10
2018-04-02T10:01:52.425Z,14.50
2018-04-02T10:04:31.501Z,14.30
2018-04-02T10:07:07.306Z,14.30
2018-04-02T10:09:45.155Z,14.80
2018-04-02T10:12:20.341Z,15.00
2018-04-02T10:14:55.894Z,15.00
2018-04-02T10:17:30.023Z,15.00
2018-04-02T10:20:04.731Z,15.60
2018-04-02T10:22:40.520Z,15.60
2018-04-02T10:25:14.913Z,16.30
2018-04-02T10:27:48.691Z,16.50
2018-04-02T10:30:23.421Z,16.60
2018-04-02T10:32:59.221Z,16.70
2018-04-02T10:35:34.547Z,16.60
2018-04-02T10:38:09.400Z,17.00
2018-04-02T10:40:44.183Z,16.90
2018-04-02T10:43:18.183Z,17.00
2018-04-02T10:45:52.884Z,15.90
2018-04-02T10:48:27.407Z,15.90
2018-04-02T10:51:03.239Z,15.30
2018-04-02T10:53:37.980Z,16.10
2018-04-02T10:56:12.649Z,16.50
2018-04-02T10:58:47.659Z,16.40
2018-04-02T11:01:22.177Z,14.80
2018-04-02T11:03:56.964Z,14.70
2018-04-02T11:06:30.914Z,15.60
2018-04-02T11:09:07.620Z,16.40
2018-04-02T11:11:43.024Z,17.40
2018-04-02T11:14:17.048Z,17.40
2018-04-02T11:16:51.881Z,17.70
2018-04-02T11:19:26.800Z,19.10
2018-04-02T11:22:02.781Z,19.10
2018-04-02T11:24:38.084Z,18.60
2018-04-02T11:27:12.607Z,18.50
2018-04-02T11:29:47.779Z,18.40
2018-04-02T11:32:23.569Z,18.30
2018-04-02T11:34:58.631Z,18.20
2018-04-02T11:37:32.542Z,18.20
2018-04-02T11:40:07.052Z,18.10
2018-04-02T11:42:42.188Z,18.40
2018-04-02T11:45:20.501Z,18.60
2018-04-02T11:47:55.764Z,19.20
2018-04-02T11:50:29.732Z,19.10
2018-04-02T11:53:04.026Z,19.50
2018-04-02T11:55:38.569Z,19.20
2018-04-02T11:58:12.681Z,19.20
2018-04-02T12:00:47.544Z,19.80
2018-04-02T12:03:21.657Z,19.70
2018-04-02T12:05:55.542Z,19.60
2018-04-02T12:08:29.359Z,19.90
2018-04-02T12:11:03.146Z,20.20
2018-04-02T12:13:38.714Z,19.90
2018-04-02T12:16:15.563Z,19.80
2018-04-02T12:18:50.427Z,20.30
2018-04-02T12:21:25.248Z,20.20
2018-04-02T12:23:59.880Z,20.30
2018-04-02T12:26:34.682Z,20.90
2018-04-02T12:29:09.715Z,20.80
2018-04-02T12:31:43.603Z,20.80
2018-04-02T12:34:17.964Z,21.50
2018-04-02T12:36:51.927Z,21.30
2018-04-02T12:39:26.351Z,21.40
2018-04-02T12:42:00.275Z,21.70
2018-04-02T12:44:36.334Z,21.90
2018-04-02T12:47:10.135Z,21.80
2018-04-02T12:49:44.538Z,21.80
2018-04-02T12:52:19.379Z,22.20
2018-04-02T12:54:53.591Z,22.10
2018-04-02T12:57:28.315Z,22.30
2018-04-02T13:00:03.138Z,23.00
2018-04-02T13:02:37.756Z,23.00
2018-04-02T13:05:12.884Z,22.90
2018-04-02T13:07:47.724Z,22.90
2018-04-02T13:10:21.529Z,22.90
2018-04-02T13:12:56.344Z,23.10
2018-04-02T13:15:31.071Z,23.10
2018-04-02T13:18:07.657Z,22.90
2018-04-02T13:20:41.561Z,22.90
2018-04-02T13:23:16.273Z,23.10
2018-04-02T13:25:50.180Z,23.60
2018-04-02T13:28:25.045Z,24.90
2018-04-02T13:30:59.643Z,24.90
2018-04-02T13:33:34.282Z,25.80
2018-04-02T13:36:08.580Z,25.90
2018-04-02T13:38:43.139Z,27.00
2018-04-02T13:41:17.728Z,27.30
2018-04-02T13:43:52.309Z,27.70
2018-04-02T13:46:26.563Z,27.70
2018-04-02T13:49:01.508Z,27.90
2018-04-02T13:51:36.768Z,28.20
2018-04-02T13:54:11.687Z,25.90
2018-04-02T13:56:45.677Z,25.90
2018-04-02T13:59:20.833Z,25.60
2018-04-02T14:01:56.841Z,25.00
2018-04-02T14:04:31.377Z,25.00
2018-04-02T14:07:06.951Z,25.80
2018-04-02T14:09:40.924Z,25.80
2018-04-02T14:12:18.363Z,25.30
2018-04-02T14:14:53.351Z,26.80
2018-04-02T14:17:27.916Z,28.40
2018-04-02T14:20:02.618Z,28.20
2018-04-02T14:22:37.435Z,28.50
2018-04-02T14:25:12.446Z,28.30
2018-04-02T14:27:46.166Z,28.30
2018-04-02T14:30:20.098Z,27.30
2018-04-02T14:32:55.017Z,25.40
2018-04-02T14:35:28.911Z,25.30
2018-04-02T14:38:03.660Z,23.40
2018-04-02T14:40:38.152Z,24.30
2018-04-02T14:43:12.992Z,25.00
2018-04-02T14:45:53.950Z,25.20
2018-04-02T14:48:28.182Z,25.20
2018-04-02T14:51:03.626Z,23.80
2018-04-02T14:53:37.930Z,23.80
2018-04-02T14:56:13.953Z,22.90
2018-04-02T14:58:47.900Z,22.90
2018-04-02T15:01:22.718Z,22.10
2018-04-02T15:03:57.412Z,22.30
2018-04-02T15:06:32.291Z,22.60
2018-04-02T15:09:07.212Z,22.60
2018-04-02T15:11:41.835Z,23.20
2018-04-02T15:14:16.701Z,23.70
2018-04-02T15:16:51.354Z,25.90
2018-04-02T15:19:26.236Z,27.40
2018-04-02T15:22:01.545Z,28.50
2018-04-02T15:24:36.200Z,28.90
2018-04-02T15:27:10.195Z,28.80
2018-04-02T15:29:45.327Z,27.60
2018-04-02T15:32:19.769Z,27.50
2018-04-02T15:34:54.469Z,27.90
2018-04-02T15:37:29.099Z,26.80
2018-04-02T15:40:02.913Z,26.80
2018-04-02T15:42:37.693Z,27.70
2018-04-02T15:45:11.966Z,27.70
2018-04-02T15:47:46.354Z,27.40
2018-04-02T15:50:20.485Z,26.50
2018-04-02T15:52:55.298Z,24.50
2018-04-02T15:55:29.713Z,24.80
2018-04-02T15:58:04.276Z,24.70
2018-04-02T16:00:38.678Z,24.40
2018-04-02T16:03:14.819Z,23.80
2018-04-02T16:05:49.752Z,23.30
2018-04-02T16:08:24.559Z,23.00
2018-04-02T16:10:58.379Z,22.90
2018-04-02T16:13:32.304Z,22.20
2018-04-02T16:16:08.345Z,21.70
2018-04-02T16:18:42.368Z,21.60
2018-04-02T16:21:16.365Z,21.30
2018-04-02T16:23:50.802Z,20.70
2018-04-02T16:26:25.830Z,20.60
2018-04-02T16:29:00.372Z,20.50
2018-04-02T16:31:35.411Z,20.40
2018-04-02T16:34:09.596Z,20.50
2018-04-02T16:36:45.762Z,20.30
2018-04-02T16:39:20.463Z,20.10
2018-04-02T16:41:55.417Z,19.90
2018-04-02T16:44:31.834Z,19.90
2018-04-02T16:47:06.684Z,19.70
2018-04-02T16:49:41.436Z,19.30
2018-04-02T16:52:16.147Z,19.20
2018-04-02T16:54:50.898Z,18.80
2018-04-02T16:57:25.257Z,18.70
2018-04-02T17:00:00.478Z,18.10
2018-04-02T17:02:34.942Z,18.10
2018-04-02T17:05:09.882Z,17.80
2018-04-02T17:07:44.204Z,17.50
2018-04-02T17:10:18.832Z,17.00
2018-04-02T17:12:55.714Z,16.90
2018-04-02T17:15:30.105Z,16.90
2018-04-02T17:18:04.480Z,17.00
2018-04-02T17:20:38.997Z,16.90
2018-04-02T17:23:13.646Z,16.90
2018-04-02T17:25:50.368Z,16.90
2018-04-02T17:28:24.707Z,16.80
2018-04-02T17:30:58.976Z,16.80
2018-04-02T17:33:36.454Z,16.50
2018-04-02T17:36:10.354Z,16.60
2018-04-02T17:38:44.392Z,16.50
2018-04-02T17:41:18.698Z,16.30
2018-04-02T17:43:53.126Z,16.20
2018-04-02T17:46:27.191Z,16.20
2018-04-02T17:49:02.869Z,16.20
2018-04-02T17:51:37.816Z,16.10
2018-04-02T17:54:14.854Z,15.80
2018-04-02T17:56:49.053Z,15.80
2018-04-02T17:59:23.709Z,15.80
2018-04-02T18:01:57.439Z,15.70
2018-04-02T18:04:32.051Z,15.60
2018-04-02T18:07:06.353Z,15.60
2018-04-02T18:09:40.181Z,15.50
2018-04-02T18:12:15.273Z,15.30
2018-04-02T18:14:49.016Z,15.30
2018-04-02T18:17:23.120Z,15.20
2018-04-02T18:19:57.224Z,15.20
2018-04-02T18:22:32.230Z,15.30
2018-04-02T18:25:06.410Z,15.30
2018-04-02T18:27:40.500Z,15.30
2018-04-02T18:30:14.606Z,15.20
2018-04-02T18:32:48.786Z,15.10
2018-04-02T18:35:22.717Z,15.00
2018-04-02T18:37:57.347Z,14.80
2018-04-02T18:40:31.971Z,14.80
2018-04-02T18:43:07.876Z,14.60
2018-04-02T18:45:42.466Z,14.40
2018-04-02T18:48:17.065Z,14.50
2018-04-02T18:50:51.982Z,14.30
2018-04-02T18:53:27.174Z,14.00
2018-04-02T18:56:01.188Z,14.00
2018-04-02T18:58:35.620Z,14.00
2018-04-02T19:01:10.501Z,14.00
2018-04-02T19:03:45.387Z,13.90
2018-04-02T19:06:19.349Z,13.90
2018-04-02T19:08:54.819Z,13.80
2018-04-02T19:11:29.601Z,13.80
2018-04-02T19:14:04.016Z,13.80
2018-04-02T19:16:38.033Z,13.70
2018-04-02T19:19:12.882Z,13.50
2018-04-02T19:21:47.412Z,13.50
2018-04-02T19:24:22.249Z,13.30
2018-04-02T19:26:57.664Z,13.20
2018-04-02T19:29:31.633Z,13.20
2018-04-02T19:32:05.273Z,13.40
2018-04-02T19:34:40.183Z,13.80
2018-04-02T19:37:15.106Z,13.90
2018-04-02T19:39:48.937Z,13.90
2018-04-02T19:42:23.780Z,14.20
2018-04-02T19:44:57.941Z,14.20
2018-04-02T19:47:32.891Z,14.40
2018-04-02T19:50:07.649Z,14.30
2018-04-02T19:52:42.304Z,14.30
2018-04-02T19:55:16.587Z,14.30
2018-04-02T19:57:51.144Z,14.30
2018-04-02T20:00:26.507Z,14.20
2018-04-02T20:03:01.480Z,14.20
2018-04-02T20:05:37.261Z,14.10
2018-04-02T20:08:12.052Z,14.10
2018-04-02T20:10:47.004Z,13.90
2018-04-02T20:13:21.209Z,13.90
2018-04-02T20:15:57.466Z,13.50
2018-04-02T20:18:32.660Z,13.50
2018-04-02T20:21:07.841Z,13.40
2018-04-02T20:23:42.149Z,13.40
2018-04-02T20:26:16.305Z,13.30
2018-04-02T20:28:50.636Z,13.30
2018-04-02T20:31:25.997Z,12.90
2018-04-02T20:34:00.656Z,12.80
2018-04-02T20:36:36.019Z,12.80
2018-04-02T20:39:11.207Z,12.80
2018-04-02T20:41:45.437Z,12.90
2018-04-02T20:44:19.560Z,12.80
2018-04-02T20:46:56.423Z,12.40
2018-04-02T20:49:30.434Z,12.40
2018-04-02T20:52:05.968Z,12.00
2018-04-02T20:54:41.632Z,11.80
2018-04-02T20:57:16.048Z,11.80
2018-04-02T20:59:50.856Z,11.70
2018-04-02T21:02:24.896Z,11.70
2018-04-02T21:05:00.153Z,11.20
2018-04-02T21:07:34.232Z,11.20
2018-04-02T21:10:08.024Z,11.00
2018-04-02T21:12:41.891Z,11.00
2018-04-02T21:15:16.272Z,10.90
2018-04-02T21:17:50.366Z,11.00
2018-04-02T21:20:25.607Z,10.80
2018-04-02T21:23:00.214Z,10.60
2018-04-02T21:25:35.995Z,10.60
2018-04-02T21:28:10.290Z,10.50
2018-04-02T21:30:45.983Z,10.40
2018-04-02T21:33:19.661Z,10.40
2018-04-02T21:35:54.567Z,10.50
2018-04-02T21:38:29.179Z,10.50
2018-04-02T21:41:03.886Z,10.60
2018-04-02T21:43:39.146Z,10.50
2018-04-02T21:46:14.248Z,10.30
2018-04-02T21:48:48.205Z,10.30
2018-04-02T21:51:22.524Z,10.30
2018-04-02T21:53:57.250Z,10.20
2018-04-02T21:56:31.144Z,10.10
2018-04-02T21:59:05.067Z,10.30
2018-04-02T22:01:39.270Z,10.20
2018-04-02T22:04:14.105Z,10.20
2018-04-02T22:20:09.912Z,10.40
2018-04-02T22:22:44.105Z,10.40
2018-04-02T22:25:18.994Z,9.90
2018-04-02T22:27:52.867Z,9.90
2018-04-02T22:30:26.860Z,9.70
2018-04-02T22:33:01.247Z,9.60
2018-04-02T22:35:36.540Z,9.40
2018-04-02T22:38:10.432Z,9.40
2018-04-02T22:40:44.855Z,9.50
2018-04-02T22:43:19.059Z,9.30
2018-04-02T22:45:54.161Z,9.20
2018-04-02T22:48:29.431Z,9.20
2018-04-02T22:51:04.178Z,9.10
2018-04-02T22:53:38.903Z,8.80
2018-04-02T22:56:14.605Z,8.70
2018-04-02T22:58:49.367Z,8.80
2018-04-02T23:01:24.096Z,8.80
2018-04-02T23:03:57.884Z,8.80
2018-04-02T23:06:31.586Z,8.70
2018-04-02T23:09:06.172Z,8.60
2018-04-02T23:11:40.851Z,8.70
2018-04-02T23:14:15.582Z,8.80
2018-04-02T23:16:50.075Z,8.80
2018-04-02T23:19:24.342Z,8.80
2018-04-02T23:21:59.319Z,8.70
2018-04-02T23:24:34.116Z,8.80
2018-04-02T23:27:08.472Z,8.80
2018-04-02T23:29:43.295Z,8.70
2018-04-02T23:32:17.677Z,8.60
2018-04-02T23:34:52.272Z,8.80
2018-04-02T23:37:26.519Z,8.80
2018-04-02T23:40:00.975Z,8.90
2018-04-02T23:42:35.605Z,9.00
2018-04-02T23:45:10.237Z,9.00
2018-04-02T23:47:46.089Z,9.00
2018-04-02T23:50:21.741Z,9.00
2018-04-02T23:52:56.321Z,8.90
2018-04-02T23:55:30.781Z,8.90
2018-04-02T23:58:05.901Z,9.00
